sensor_id;sensor_type;location;lat;lon;timestamp;temperature;humidity
50947;DHT22;36955;47.416;7.716;2022-12-18T00:01:34;-3.20;99.90
50947;DHT22;36955;47.416;7.716;2022-12-18T00:04:03;-3.20;99.90
50947;DHT22;36955;47.416;7.716;2022-12-18T00:06:29;-3.20;99.90
50947;DHT22;36955;47.416;7.716;2022-12-18T00:08:57;-3.20;99.90
50947;DHT22;36955;47.416;7.716;2022-12-18T00:11:26;-3.20;99.90
50947;DHT22;36955;47.416;7.716;2022-12-18T00:13:54;-3.20;99.90
50947;DHT22;36955;47.416;7.716;2022-12-18T00:16:22;-3.20;99.90
50947;DHT22;36955;47.416;7.716;2022-12-18T00:18:50;-3.20;99.90
50947;DHT22;36955;47.416;7.716;2022-12-18T00:21:16;-3.20;99.90
50947;DHT22;36955;47.416;7.716;2022-12-18T00:23:44;-3.30;99.90
50947;DHT22;36955;47.416;7.716;2022-12-18T00:26:31;-3.30;99.90
50947;DHT22;36955;47.416;7.716;2022-12-18T00:29:11;-3.20;99.90
50947;DHT22;36955;47.416;7.716;2022-12-18T00:31:38;-3.20;99.90
50947;DHT22;36955;47.416;7.716;2022-12-18T00:34:04;-3.20;99.90
50947;DHT22;36955;47.416;7.716;2022-12-18T00:36:32;-3.30;99.90
50947;DHT22;36955;47.416;7.716;2022-12-18T00:39:01;-3.20;99.90
50947;DHT22;36955;47.416;7.716;2022-12-18T00:41:28;-3.30;99.90
50947;DHT22;36955;47.416;7.716;2022-12-18T00:43:54;-3.30;99.90
50947;DHT22;36955;47.416;7.716;2022-12-18T00:46:20;-3.30;99.90
50947;DHT22;36955;47.416;7.716;2022-12-18T00:48:46;-3.30;99.90
50947;DHT22;36955;47.416;7.716;2022-12-18T00:51:12;-3.30;99.90
50947;DHT22;36955;47.416;7.716;2022-12-18T00:53:38;-3.30;99.90
50947;DHT22;36955;47.416;7.716;2022-12-18T00:56:04;-3.40;99.90
50947;DHT22;36955;47.416;7.716;2022-12-18T00:58:30;-3.30;99.90
50947;DHT22;36955;47.416;7.716;2022-12-18T01:00:56;-3.20;99.90
50947;DHT22;36955;47.416;7.716;2022-12-18T01:03:22;-3.30;99.90
50947;DHT22;36955;47.416;7.716;2022-12-18T01:05:48;-3.30;99.90
50947;DHT22;36955;47.416;7.716;2022-12-18T01:08:14;-3.30;99.90
50947;DHT22;36955;47.416;7.716;2022-12-18T01:10:41;-3.40;99.90
50947;DHT22;36955;47.416;7.716;2022-12-18T01:13:07;-3.50;99.90
50947;DHT22;36955;47.416;7.716;2022-12-18T01:15:33;-3.60;99.90
50947;DHT22;36955;47.416;7.716;2022-12-18T01:17:59;-3.70;99.90
50947;DHT22;36955;47.416;7.716;2022-12-18T01:20:25;-3.80;99.90
50947;DHT22;36955;47.416;7.716;2022-12-18T01:22:51;-3.90;99.90
50947;DHT22;36955;47.416;7.716;2022-12-18T01:25:17;-3.90;99.90
50947;DHT22;36955;47.416;7.716;2022-12-18T01:27:43;-4.00;99.90
50947;DHT22;36955;47.416;7.716;2022-12-18T01:30:09;-4.10;99.90
50947;DHT22;36955;47.416;7.716;2022-12-18T01:32:36;-4.10;99.90
50947;DHT22;36955;47.416;7.716;2022-12-18T01:35:02;-4.10;99.90
50947;DHT22;36955;47.416;7.716;2022-12-18T01:37:28;-4.10;99.90
50947;DHT22;36955;47.416;7.716;2022-12-18T01:39:54;-4.20;99.90
50947;DHT22;36955;47.416;7.716;2022-12-18T01:42:20;-4.30;99.90
50947;DHT22;36955;47.416;7.716;2022-12-18T01:47:31;-4.40;99.90
50947;DHT22;36955;47.416;7.716;2022-12-18T01:50:08;-4.30;99.90
50947;DHT22;36955;47.416;7.716;2022-12-18T01:52:36;-4.10;99.90
50947;DHT22;36955;47.416;7.716;2022-12-18T01:55:05;-4.10;99.90
50947;DHT22;36955;47.416;7.716;2022-12-18T01:57:32;-4.10;99.90
50947;DHT22;36955;47.416;7.716;2022-12-18T02:00:08;-4.10;99.90
50947;DHT22;36955;47.416;7.716;2022-12-18T02:02:35;-4.10;99.90
50947;DHT22;36955;47.416;7.716;2022-12-18T02:05:02;-4.20;99.90
50947;DHT22;36955;47.416;7.716;2022-12-18T02:18:28;-4.20;99.90
50947;DHT22;36955;47.416;7.716;2022-12-18T02:26:17;-4.20;99.90
50947;DHT22;36955;47.416;7.716;2022-12-18T02:29:08;-4.30;99.90
50947;DHT22;36955;47.416;7.716;2022-12-18T02:31:40;-4.30;99.90
50947;DHT22;36955;47.416;7.716;2022-12-18T02:34:09;-4.40;99.90
50947;DHT22;36955;47.416;7.716;2022-12-18T02:36:37;-4.50;99.90
50947;DHT22;36955;47.416;7.716;2022-12-18T02:39:05;-4.60;99.90
50947;DHT22;36955;47.416;7.716;2022-12-18T02:41:32;-4.70;99.90
50947;DHT22;36955;47.416;7.716;2022-12-18T02:44:06;-4.70;99.90
50947;DHT22;36955;47.416;7.716;2022-12-18T02:46:44;-4.60;99.90
50947;DHT22;36955;47.416;7.716;2022-12-18T02:52:44;-4.70;99.90
50947;DHT22;36955;47.416;7.716;2022-12-18T03:00:39;-4.70;99.90
50947;DHT22;36955;47.416;7.716;2022-12-18T03:05:43;-4.70;99.90
50947;DHT22;36955;47.416;7.716;2022-12-18T03:08:24;-4.70;99.90
50947;DHT22;36955;47.416;7.716;2022-12-18T03:13:37;-4.70;99.90
50947;DHT22;36955;47.416;7.716;2022-12-18T03:16:07;-4.70;99.90
50947;DHT22;36955;47.416;7.716;2022-12-18T03:18:58;-4.80;99.90
50947;DHT22;36955;47.416;7.716;2022-12-18T03:21:37;-4.80;99.90
50947;DHT22;36955;47.416;7.716;2022-12-18T03:24:06;-4.80;99.90
50947;DHT22;36955;47.416;7.716;2022-12-18T03:26:35;-4.80;99.90
50947;DHT22;36955;47.416;7.716;2022-12-18T03:29:08;-4.90;99.90
50947;DHT22;36955;47.416;7.716;2022-12-18T03:31:40;-4.90;99.90
50947;DHT22;36955;47.416;7.716;2022-12-18T03:34:17;-4.90;99.90
50947;DHT22;36955;47.416;7.716;2022-12-18T03:36:45;-4.90;99.90
50947;DHT22;36955;47.416;7.716;2022-12-18T03:39:11;-5.00;99.90
50947;DHT22;36955;47.416;7.716;2022-12-18T03:44:39;-5.00;99.90
50947;DHT22;36955;47.416;7.716;2022-12-18T03:50:03;-5.00;99.90
50947;DHT22;36955;47.416;7.716;2022-12-18T03:52:49;-5.00;99.90
50947;DHT22;36955;47.416;7.716;2022-12-18T03:55:19;-4.80;99.90
50947;DHT22;36955;47.416;7.716;2022-12-18T03:57:48;-4.80;99.90
50947;DHT22;36955;47.416;7.716;2022-12-18T04:00:17;-4.80;99.90
50947;DHT22;36955;47.416;7.716;2022-12-18T04:02:55;-4.90;99.90
50947;DHT22;36955;47.416;7.716;2022-12-18T04:05:23;-5.00;99.90
50947;DHT22;36955;47.416;7.716;2022-12-18T04:07:51;-5.10;99.90
50947;DHT22;36955;47.416;7.716;2022-12-18T04:10:18;-5.10;99.90
50947;DHT22;36955;47.416;7.716;2022-12-18T04:12:44;-5.20;99.90
50947;DHT22;36955;47.416;7.716;2022-12-18T04:15:11;-5.20;99.90
50947;DHT22;36955;47.416;7.716;2022-12-18T04:17:38;-5.30;99.90
50947;DHT22;36955;47.416;7.716;2022-12-18T04:20:05;-5.40;99.90
50947;DHT22;36955;47.416;7.716;2022-12-18T04:22:31;-5.30;99.90
50947;DHT22;36955;47.416;7.716;2022-12-18T04:24:57;-5.30;99.90
50947;DHT22;36955;47.416;7.716;2022-12-18T04:27:23;-5.20;99.90
50947;DHT22;36955;47.416;7.716;2022-12-18T04:29:49;-5.10;99.90
50947;DHT22;36955;47.416;7.716;2022-12-18T04:32:15;-5.20;99.90
50947;DHT22;36955;47.416;7.716;2022-12-18T04:34:41;-5.20;99.90
50947;DHT22;36955;47.416;7.716;2022-12-18T04:37:07;-5.10;99.90
50947;DHT22;36955;47.416;7.716;2022-12-18T04:39:33;-5.10;99.90
50947;DHT22;36955;47.416;7.716;2022-12-18T04:41:59;-5.10;99.90
50947;DHT22;36955;47.416;7.716;2022-12-18T04:44:25;-5.10;99.90
50947;DHT22;36955;47.416;7.716;2022-12-18T04:46:51;-5.20;99.90
50947;DHT22;36955;47.416;7.716;2022-12-18T04:49:17;-5.20;99.90
50947;DHT22;36955;47.416;7.716;2022-12-18T04:51:43;-5.20;99.90
50947;DHT22;36955;47.416;7.716;2022-12-18T04:54:09;-5.10;99.90
50947;DHT22;36955;47.416;7.716;2022-12-18T04:56:35;-5.10;99.90
50947;DHT22;36955;47.416;7.716;2022-12-18T04:59:01;-5.10;99.90
50947;DHT22;36955;47.416;7.716;2022-12-18T05:01:27;-5.10;99.90
50947;DHT22;36955;47.416;7.716;2022-12-18T05:03:53;-5.10;99.90
50947;DHT22;36955;47.416;7.716;2022-12-18T05:06:19;-5.10;99.90
50947;DHT22;36955;47.416;7.716;2022-12-18T05:08:45;-5.10;99.90
50947;DHT22;36955;47.416;7.716;2022-12-18T05:11:13;-5.10;99.90
50947;DHT22;36955;47.416;7.716;2022-12-18T05:13:40;-5.10;99.90
50947;DHT22;36955;47.416;7.716;2022-12-18T05:16:06;-5.10;99.90
50947;DHT22;36955;47.416;7.716;2022-12-18T05:18:32;-5.10;99.90
50947;DHT22;36955;47.416;7.716;2022-12-18T05:20:58;-5.10;99.90
50947;DHT22;36955;47.416;7.716;2022-12-18T05:23:25;-5.00;99.90
50947;DHT22;36955;47.416;7.716;2022-12-18T05:26:01;-5.00;99.90
50947;DHT22;36955;47.416;7.716;2022-12-18T05:28:29;-5.00;99.90
50947;DHT22;36955;47.416;7.716;2022-12-18T05:30:57;-5.00;99.90
50947;DHT22;36955;47.416;7.716;2022-12-18T05:33:25;-5.00;99.90
50947;DHT22;36955;47.416;7.716;2022-12-18T05:35:54;-4.90;99.90
50947;DHT22;36955;47.416;7.716;2022-12-18T05:38:21;-4.90;99.90
50947;DHT22;36955;47.416;7.716;2022-12-18T05:40:48;-4.90;99.90
50947;DHT22;36955;47.416;7.716;2022-12-18T05:43:14;-4.90;99.90
50947;DHT22;36955;47.416;7.716;2022-12-18T05:45:41;-5.00;99.90
50947;DHT22;36955;47.416;7.716;2022-12-18T05:48:07;-4.90;99.90
50947;DHT22;36955;47.416;7.716;2022-12-18T05:50:35;-4.90;99.90
50947;DHT22;36955;47.416;7.716;2022-12-18T05:53:02;-4.90;99.90
50947;DHT22;36955;47.416;7.716;2022-12-18T05:55:28;-5.00;99.90
50947;DHT22;36955;47.416;7.716;2022-12-18T05:57:54;-5.00;99.90
50947;DHT22;36955;47.416;7.716;2022-12-18T06:00:20;-5.00;99.90
50947;DHT22;36955;47.416;7.716;2022-12-18T06:02:47;-5.10;99.90
50947;DHT22;36955;47.416;7.716;2022-12-18T06:05:13;-5.10;99.90
50947;DHT22;36955;47.416;7.716;2022-12-18T06:07:39;-5.10;99.90
50947;DHT22;36955;47.416;7.716;2022-12-18T06:10:05;-5.20;99.90
50947;DHT22;36955;47.416;7.716;2022-12-18T06:12:31;-5.20;99.90
50947;DHT22;36955;47.416;7.716;2022-12-18T06:14:57;-5.20;99.90
50947;DHT22;36955;47.416;7.716;2022-12-18T06:17:28;-5.10;99.90
50947;DHT22;36955;47.416;7.716;2022-12-18T06:19:54;-5.10;99.90
50947;DHT22;36955;47.416;7.716;2022-12-18T06:22:20;-5.10;99.90
50947;DHT22;36955;47.416;7.716;2022-12-18T06:24:46;-5.10;99.90
50947;DHT22;36955;47.416;7.716;2022-12-18T06:27:12;-5.10;99.90
50947;DHT22;36955;47.416;7.716;2022-12-18T06:29:38;-5.10;99.90
50947;DHT22;36955;47.416;7.716;2022-12-18T06:32:04;-5.10;99.90
50947;DHT22;36955;47.416;7.716;2022-12-18T06:34:30;-5.20;99.90
50947;DHT22;36955;47.416;7.716;2022-12-18T06:36:56;-5.30;99.90
50947;DHT22;36955;47.416;7.716;2022-12-18T06:39:22;-5.30;99.90
50947;DHT22;36955;47.416;7.716;2022-12-18T06:41:48;-5.50;99.90
50947;DHT22;36955;47.416;7.716;2022-12-18T06:44:15;-5.40;99.90
50947;DHT22;36955;47.416;7.716;2022-12-18T06:46:41;-5.30;99.90
50947;DHT22;36955;47.416;7.716;2022-12-18T06:49:07;-5.20;99.90
50947;DHT22;36955;47.416;7.716;2022-12-18T06:51:33;-5.00;99.90
50947;DHT22;36955;47.416;7.716;2022-12-18T06:53:59;-5.00;99.90
50947;DHT22;36955;47.416;7.716;2022-12-18T06:56:25;-5.00;99.90
50947;DHT22;36955;47.416;7.716;2022-12-18T06:58:51;-5.10;99.90
50947;DHT22;36955;47.416;7.716;2022-12-18T07:01:18;-5.20;99.90
50947;DHT22;36955;47.416;7.716;2022-12-18T07:03:44;-5.20;99.90
50947;DHT22;36955;47.416;7.716;2022-12-18T07:06:18;-5.20;99.90
50947;DHT22;36955;47.416;7.716;2022-12-18T07:08:46;-5.10;99.90
50947;DHT22;36955;47.416;7.716;2022-12-18T07:11:12;-5.10;99.90
50947;DHT22;36955;47.416;7.716;2022-12-18T07:13:38;-5.10;99.90
50947;DHT22;36955;47.416;7.716;2022-12-18T07:16:10;-5.10;99.90
50947;DHT22;36955;47.416;7.716;2022-12-18T07:18:36;-5.10;99.90
50947;DHT22;36955;47.416;7.716;2022-12-18T07:21:04;-5.10;99.90
50947;DHT22;36955;47.416;7.716;2022-12-18T07:23:32;-5.20;99.90
50947;DHT22;36955;47.416;7.716;2022-12-18T07:26:04;-5.10;99.90
50947;DHT22;36955;47.416;7.716;2022-12-18T07:28:31;-5.10;99.90
50947;DHT22;36955;47.416;7.716;2022-12-18T07:30:58;-5.10;99.90
50947;DHT22;36955;47.416;7.716;2022-12-18T07:33:24;-5.10;99.90
50947;DHT22;36955;47.416;7.716;2022-12-18T07:35:50;-5.10;99.90
50947;DHT22;36955;47.416;7.716;2022-12-18T07:38:16;-5.20;99.90
50947;DHT22;36955;47.416;7.716;2022-12-18T07:40:42;-5.20;99.90
50947;DHT22;36955;47.416;7.716;2022-12-18T07:43:08;-5.00;99.90
50947;DHT22;36955;47.416;7.716;2022-12-18T07:45:34;-4.90;99.90
50947;DHT22;36955;47.416;7.716;2022-12-18T07:48:00;-4.90;99.90
50947;DHT22;36955;47.416;7.716;2022-12-18T07:50:26;-4.80;99.90
50947;DHT22;36955;47.416;7.716;2022-12-18T07:52:52;-4.80;99.90
50947;DHT22;36955;47.416;7.716;2022-12-18T07:55:18;-4.70;99.90
50947;DHT22;36955;47.416;7.716;2022-12-18T07:57:44;-4.60;99.90
50947;DHT22;36955;47.416;7.716;2022-12-18T08:00:11;-4.50;99.90
50947;DHT22;36955;47.416;7.716;2022-12-18T08:02:37;-4.40;99.90
50947;DHT22;36955;47.416;7.716;2022-12-18T08:05:04;-4.40;99.90
50947;DHT22;36955;47.416;7.716;2022-12-18T08:07:30;-4.40;99.90
50947;DHT22;36955;47.416;7.716;2022-12-18T08:09:56;-4.30;99.90
50947;DHT22;36955;47.416;7.716;2022-12-18T08:12:22;-4.20;99.90
50947;DHT22;36955;47.416;7.716;2022-12-18T08:14:48;-4.20;99.90
50947;DHT22;36955;47.416;7.716;2022-12-18T08:17:14;-4.10;99.90
50947;DHT22;36955;47.416;7.716;2022-12-18T08:19:40;-4.10;99.90
50947;DHT22;36955;47.416;7.716;2022-12-18T08:22:06;-4.00;99.90
50947;DHT22;36955;47.416;7.716;2022-12-18T08:24:32;-3.90;99.90
50947;DHT22;36955;47.416;7.716;2022-12-18T08:26:58;-3.90;99.90
50947;DHT22;36955;47.416;7.716;2022-12-18T08:29:24;-3.80;99.90
50947;DHT22;36955;47.416;7.716;2022-12-18T08:31:50;-3.70;99.90
50947;DHT22;36955;47.416;7.716;2022-12-18T08:34:16;-3.70;99.90
50947;DHT22;36955;47.416;7.716;2022-12-18T08:36:42;-3.60;99.90
50947;DHT22;36955;47.416;7.716;2022-12-18T08:39:08;-3.60;99.90
50947;DHT22;36955;47.416;7.716;2022-12-18T08:41:34;-3.50;99.90
50947;DHT22;36955;47.416;7.716;2022-12-18T08:44:00;-3.40;99.90
50947;DHT22;36955;47.416;7.716;2022-12-18T08:46:30;-3.40;99.90
50947;DHT22;36955;47.416;7.716;2022-12-18T08:48:57;-3.30;99.90
50947;DHT22;36955;47.416;7.716;2022-12-18T08:51:23;-3.30;99.90
50947;DHT22;36955;47.416;7.716;2022-12-18T08:53:49;-3.20;99.90
50947;DHT22;36955;47.416;7.716;2022-12-18T08:56:15;-3.10;99.90
50947;DHT22;36955;47.416;7.716;2022-12-18T08:58:41;-3.00;99.90
50947;DHT22;36955;47.416;7.716;2022-12-18T09:01:09;-2.90;99.90
50947;DHT22;36955;47.416;7.716;2022-12-18T09:03:36;-3.00;99.90
50947;DHT22;36955;47.416;7.716;2022-12-18T09:06:02;-3.00;99.90
50947;DHT22;36955;47.416;7.716;2022-12-18T09:08:29;-2.90;99.90
50947;DHT22;36955;47.416;7.716;2022-12-18T09:10:55;-2.80;99.90
50947;DHT22;36955;47.416;7.716;2022-12-18T09:13:22;-2.70;99.90
50947;DHT22;36955;47.416;7.716;2022-12-18T09:15:52;-2.70;99.90
50947;DHT22;36955;47.416;7.716;2022-12-18T09:18:20;-2.60;99.90
50947;DHT22;36955;47.416;7.716;2022-12-18T09:20:47;-2.50;99.90
50947;DHT22;36955;47.416;7.716;2022-12-18T09:23:13;-2.40;99.90
50947;DHT22;36955;47.416;7.716;2022-12-18T09:25:40;-2.40;99.90
50947;DHT22;36955;47.416;7.716;2022-12-18T09:28:10;-2.30;99.90
50947;DHT22;36955;47.416;7.716;2022-12-18T09:30:39;-2.30;99.90
50947;DHT22;36955;47.416;7.716;2022-12-18T09:33:05;-2.20;99.90
50947;DHT22;36955;47.416;7.716;2022-12-18T09:35:31;-2.10;99.90
50947;DHT22;36955;47.416;7.716;2022-12-18T09:37:57;-2.10;99.90
50947;DHT22;36955;47.416;7.716;2022-12-18T09:40:25;-2.00;99.90
50947;DHT22;36955;47.416;7.716;2022-12-18T09:42:59;-1.90;99.90
50947;DHT22;36955;47.416;7.716;2022-12-18T09:45:27;-1.90;99.90
50947;DHT22;36955;47.416;7.716;2022-12-18T09:47:55;-1.80;99.90
50947;DHT22;36955;47.416;7.716;2022-12-18T09:52:55;-1.70;99.90
50947;DHT22;36955;47.416;7.716;2022-12-18T09:55:42;-1.60;99.90
50947;DHT22;36955;47.416;7.716;2022-12-18T09:58:24;-1.60;99.90
50947;DHT22;36955;47.416;7.716;2022-12-18T10:00:53;-1.60;99.90
50947;DHT22;36955;47.416;7.716;2022-12-18T10:03:20;-1.50;99.90
50947;DHT22;36955;47.416;7.716;2022-12-18T10:16:54;-1.10;99.90
50947;DHT22;36955;47.416;7.716;2022-12-18T10:19:43;-1.10;99.90
50947;DHT22;36955;47.416;7.716;2022-12-18T10:27:41;-1.00;99.90
50947;DHT22;36955;47.416;7.716;2022-12-18T10:30:16;-1.00;99.90
50947;DHT22;36955;47.416;7.716;2022-12-18T10:32:42;-1.00;99.90
50947;DHT22;36955;47.416;7.716;2022-12-18T10:35:25;-0.90;99.90
50947;DHT22;36955;47.416;7.716;2022-12-18T10:40:32;-0.80;99.90
50947;DHT22;36955;47.416;7.716;2022-12-18T10:43:04;-0.70;99.90
50947;DHT22;36955;47.416;7.716;2022-12-18T10:45:31;-0.60;99.90
50947;DHT22;36955;47.416;7.716;2022-12-18T10:47:57;-0.50;99.90
50947;DHT22;36955;47.416;7.716;2022-12-18T10:50:28;-0.50;99.90
50947;DHT22;36955;47.416;7.716;2022-12-18T10:52:57;-0.40;99.90
50947;DHT22;36955;47.416;7.716;2022-12-18T10:55:26;-0.30;99.90
50947;DHT22;36955;47.416;7.716;2022-12-18T10:57:53;-0.30;99.90
50947;DHT22;36955;47.416;7.716;2022-12-18T11:00:24;-0.30;99.90
50947;DHT22;36955;47.416;7.716;2022-12-18T11:02:50;-0.30;99.90
50947;DHT22;36955;47.416;7.716;2022-12-18T11:07:53;-0.10;99.90
50947;DHT22;36955;47.416;7.716;2022-12-18T11:10:25;0.00;99.90
50947;DHT22;36955;47.416;7.716;2022-12-18T11:12:52;0.00;99.90
50947;DHT22;36955;47.416;7.716;2022-12-18T11:15:25;0.10;99.90
50947;DHT22;36955;47.416;7.716;2022-12-18T11:17:52;0.10;99.90
50947;DHT22;36955;47.416;7.716;2022-12-18T11:22:55;0.30;99.90
50947;DHT22;36955;47.416;7.716;2022-12-18T11:25:22;0.50;99.90
50947;DHT22;36955;47.416;7.716;2022-12-18T11:27:54;0.60;99.90
50947;DHT22;36955;47.416;7.716;2022-12-18T11:30:22;0.70;99.90
50947;DHT22;36955;47.416;7.716;2022-12-18T11:38:26;0.50;99.90
50947;DHT22;36955;47.416;7.716;2022-12-18T11:40:59;0.50;99.90
50947;DHT22;36955;47.416;7.716;2022-12-18T11:43:34;0.50;99.90
50947;DHT22;36955;47.416;7.716;2022-12-18T11:46:16;0.50;99.90
50947;DHT22;36955;47.416;7.716;2022-12-18T11:51:48;0.70;99.90
50947;DHT22;36955;47.416;7.716;2022-12-18T11:54:16;0.80;99.90
50947;DHT22;36955;47.416;7.716;2022-12-18T12:00:01;0.90;99.90
50947;DHT22;36955;47.416;7.716;2022-12-18T12:13:46;1.00;99.90
50947;DHT22;36955;47.416;7.716;2022-12-18T12:16:31;1.00;99.90
50947;DHT22;36955;47.416;7.716;2022-12-18T12:19:15;1.00;99.90
50947;DHT22;36955;47.416;7.716;2022-12-18T12:25:18;0.90;99.90
50947;DHT22;36955;47.416;7.716;2022-12-18T12:30:21;0.90;99.90
50947;DHT22;36955;47.416;7.716;2022-12-18T12:33:11;0.90;99.90
50947;DHT22;36955;47.416;7.716;2022-12-18T12:35:59;1.10;99.90
50947;DHT22;36955;47.416;7.716;2022-12-18T12:41:02;1.20;99.90
50947;DHT22;36955;47.416;7.716;2022-12-18T12:43:44;1.20;99.90
50947;DHT22;36955;47.416;7.716;2022-12-18T12:46:13;1.20;99.90
50947;DHT22;36955;47.416;7.716;2022-12-18T12:48:47;1.10;99.90
50947;DHT22;36955;47.416;7.716;2022-12-18T12:53:53;1.00;99.90
50947;DHT22;36955;47.416;7.716;2022-12-18T12:56:21;1.10;99.90
50947;DHT22;36955;47.416;7.716;2022-12-18T12:59:02;1.10;99.90
50947;DHT22;36955;47.416;7.716;2022-12-18T13:01:48;1.10;99.90
50947;DHT22;36955;47.416;7.716;2022-12-18T13:04:39;1.10;99.90
50947;DHT22;36955;47.416;7.716;2022-12-18T13:15:22;1.30;99.90
50947;DHT22;36955;47.416;7.716;2022-12-18T13:17:50;1.30;99.90
50947;DHT22;36955;47.416;7.716;2022-12-18T13:20:33;1.30;99.90
50947;DHT22;36955;47.416;7.716;2022-12-18T13:23:00;1.30;99.90
50947;DHT22;36955;47.416;7.716;2022-12-18T13:25:36;1.20;99.90
50947;DHT22;36955;47.416;7.716;2022-12-18T13:30:47;1.10;99.90
50947;DHT22;36955;47.416;7.716;2022-12-18T13:36:09;1.00;99.90
50947;DHT22;36955;47.416;7.716;2022-12-18T13:38:39;1.00;99.90
50947;DHT22;36955;47.416;7.716;2022-12-18T13:43:51;1.00;99.90
50947;DHT22;36955;47.416;7.716;2022-12-18T13:48:57;1.00;99.90
50947;DHT22;36955;47.416;7.716;2022-12-18T13:51:24;1.00;99.90
50947;DHT22;36955;47.416;7.716;2022-12-18T13:53:54;1.00;99.90
50947;DHT22;36955;47.416;7.716;2022-12-18T13:56:31;0.80;99.90
50947;DHT22;36955;47.416;7.716;2022-12-18T14:01:57;0.60;99.90
50947;DHT22;36955;47.416;7.716;2022-12-18T14:04:25;0.50;99.90
50947;DHT22;36955;47.416;7.716;2022-12-18T14:07:03;0.40;99.90
50947;DHT22;36955;47.416;7.716;2022-12-18T14:09:34;0.40;99.90
50947;DHT22;36955;47.416;7.716;2022-12-18T14:12:02;0.40;99.90
50947;DHT22;36955;47.416;7.716;2022-12-18T14:14:28;0.30;99.90
50947;DHT22;36955;47.416;7.716;2022-12-18T14:16:54;0.30;99.90
50947;DHT22;36955;47.416;7.716;2022-12-18T14:19:21;0.30;99.90
50947;DHT22;36955;47.416;7.716;2022-12-18T14:21:48;0.30;99.90
50947;DHT22;36955;47.416;7.716;2022-12-18T14:24:19;0.20;99.90
50947;DHT22;36955;47.416;7.716;2022-12-18T14:26:47;0.20;99.90
50947;DHT22;36955;47.416;7.716;2022-12-18T14:29:28;0.20;99.90
50947;DHT22;36955;47.416;7.716;2022-12-18T14:32:11;0.20;99.90
50947;DHT22;36955;47.416;7.716;2022-12-18T14:34:37;0.20;99.90
50947;DHT22;36955;47.416;7.716;2022-12-18T14:37:04;0.20;99.90
50947;DHT22;36955;47.416;7.716;2022-12-18T14:39:30;0.10;99.90
50947;DHT22;36955;47.416;7.716;2022-12-18T14:41:56;0.10;99.90
50947;DHT22;36955;47.416;7.716;2022-12-18T14:44:22;0.00;99.90
50947;DHT22;36955;47.416;7.716;2022-12-18T14:46:49;0.00;99.90
50947;DHT22;36955;47.416;7.716;2022-12-18T14:49:32;-0.10;99.90
50947;DHT22;36955;47.416;7.716;2022-12-18T14:54:29;-0.10;99.90
50947;DHT22;36955;47.416;7.716;2022-12-18T14:57:25;-0.10;99.90
50947;DHT22;36955;47.416;7.716;2022-12-18T14:59:51;-0.10;99.90
50947;DHT22;36955;47.416;7.716;2022-12-18T15:02:25;-0.10;99.90
50947;DHT22;36955;47.416;7.716;2022-12-18T15:07:44;-0.20;99.90
50947;DHT22;36955;47.416;7.716;2022-12-18T15:12:49;-0.30;99.90
50947;DHT22;36955;47.416;7.716;2022-12-18T15:18:01;-0.30;99.90
50947;DHT22;36955;47.416;7.716;2022-12-18T15:20:29;-0.40;99.90
50947;DHT22;36955;47.416;7.716;2022-12-18T15:22:57;-0.40;99.90
50947;DHT22;36955;47.416;7.716;2022-12-18T15:25:35;-0.50;99.90
50947;DHT22;36955;47.416;7.716;2022-12-18T15:28:02;-0.50;99.90
50947;DHT22;36955;47.416;7.716;2022-12-18T15:30:29;-0.50;99.90
50947;DHT22;36955;47.416;7.716;2022-12-18T15:33:25;-0.60;99.90
50947;DHT22;36955;47.416;7.716;2022-12-18T15:36:03;-0.70;99.90
50947;DHT22;36955;47.416;7.716;2022-12-18T15:38:30;-0.70;99.90
50947;DHT22;36955;47.416;7.716;2022-12-18T15:40:57;-0.70;99.90
50947;DHT22;36955;47.416;7.716;2022-12-18T15:43:24;-0.70;99.90
50947;DHT22;36955;47.416;7.716;2022-12-18T15:45:51;-0.70;99.90
50947;DHT22;36955;47.416;7.716;2022-12-18T15:48:22;-0.70;99.90
50947;DHT22;36955;47.416;7.716;2022-12-18T15:50:50;-0.70;99.90
50947;DHT22;36955;47.416;7.716;2022-12-18T15:53:18;-0.80;99.90
50947;DHT22;36955;47.416;7.716;2022-12-18T15:55:45;-0.80;99.90
50947;DHT22;36955;47.416;7.716;2022-12-18T15:58:11;-0.80;99.90
50947;DHT22;36955;47.416;7.716;2022-12-18T16:00:39;-0.80;99.90
50947;DHT22;36955;47.416;7.716;2022-12-18T16:03:05;-0.80;99.90
50947;DHT22;36955;47.416;7.716;2022-12-18T16:05:31;-0.80;99.90
50947;DHT22;36955;47.416;7.716;2022-12-18T16:07:58;-0.80;99.90
50947;DHT22;36955;47.416;7.716;2022-12-18T16:10:25;-0.80;99.90
50947;DHT22;36955;47.416;7.716;2022-12-18T16:12:52;-0.90;99.90
50947;DHT22;36955;47.416;7.716;2022-12-18T16:15:18;-0.90;99.90
50947;DHT22;36955;47.416;7.716;2022-12-18T16:17:45;-1.00;99.90
50947;DHT22;36955;47.416;7.716;2022-12-18T16:20:16;-0.90;99.90
50947;DHT22;36955;47.416;7.716;2022-12-18T16:22:44;-0.90;99.90
50947;DHT22;36955;47.416;7.716;2022-12-18T16:25:28;-0.90;99.90
50947;DHT22;36955;47.416;7.716;2022-12-18T16:27:55;-1.00;99.90
50947;DHT22;36955;47.416;7.716;2022-12-18T16:30:26;-1.00;99.90
50947;DHT22;36955;47.416;7.716;2022-12-18T16:32:52;-1.00;99.90
50947;DHT22;36955;47.416;7.716;2022-12-18T16:35:18;-1.00;99.90
50947;DHT22;36955;47.416;7.716;2022-12-18T16:37:44;-1.00;99.90
50947;DHT22;36955;47.416;7.716;2022-12-18T16:40:13;-1.00;99.90
50947;DHT22;36955;47.416;7.716;2022-12-18T16:42:41;-1.00;99.90
50947;DHT22;36955;47.416;7.716;2022-12-18T16:45:09;-1.00;99.90
50947;DHT22;36955;47.416;7.716;2022-12-18T16:47:36;-1.00;99.90
50947;DHT22;36955;47.416;7.716;2022-12-18T16:50:03;-1.00;99.90
50947;DHT22;36955;47.416;7.716;2022-12-18T16:52:29;-1.00;99.90
50947;DHT22;36955;47.416;7.716;2022-12-18T16:54:55;-1.00;99.90
50947;DHT22;36955;47.416;7.716;2022-12-18T16:57:22;-1.00;99.90
50947;DHT22;36955;47.416;7.716;2022-12-18T16:59:48;-0.90;99.90
50947;DHT22;36955;47.416;7.716;2022-12-18T17:02:20;-0.90;99.90
50947;DHT22;36955;47.416;7.716;2022-12-18T17:04:46;-0.90;99.90
50947;DHT22;36955;47.416;7.716;2022-12-18T17:07:13;-0.90;99.90
50947;DHT22;36955;47.416;7.716;2022-12-18T17:09:39;-0.90;99.90
50947;DHT22;36955;47.416;7.716;2022-12-18T17:12:06;-0.90;99.90
50947;DHT22;36955;47.416;7.716;2022-12-18T17:14:32;-1.00;99.90
50947;DHT22;36955;47.416;7.716;2022-12-18T17:16:58;-1.00;99.90
50947;DHT22;36955;47.416;7.716;2022-12-18T17:19:25;-1.00;99.90
50947;DHT22;36955;47.416;7.716;2022-12-18T17:21:51;-1.00;99.90
50947;DHT22;36955;47.416;7.716;2022-12-18T17:24:18;-0.90;99.90
50947;DHT22;36955;47.416;7.716;2022-12-18T17:26:45;-0.90;99.90
50947;DHT22;36955;47.416;7.716;2022-12-18T17:29:17;-0.90;99.90
50947;DHT22;36955;47.416;7.716;2022-12-18T17:31:43;-0.80;99.90
50947;DHT22;36955;47.416;7.716;2022-12-18T17:34:10;-0.80;99.90
50947;DHT22;36955;47.416;7.716;2022-12-18T17:36:37;-0.70;99.90
50947;DHT22;36955;47.416;7.716;2022-12-18T17:39:05;-0.70;99.90
50947;DHT22;36955;47.416;7.716;2022-12-18T17:41:31;-0.70;99.90
50947;DHT22;36955;47.416;7.716;2022-12-18T17:44:04;-0.70;99.90
50947;DHT22;36955;47.416;7.716;2022-12-18T17:46:32;-0.60;99.90
50947;DHT22;36955;47.416;7.716;2022-12-18T17:49:00;-0.60;99.90
50947;DHT22;36955;47.416;7.716;2022-12-18T17:51:27;-0.60;99.90
50947;DHT22;36955;47.416;7.716;2022-12-18T17:53:53;-0.70;99.90
50947;DHT22;36955;47.416;7.716;2022-12-18T17:56:21;-0.70;99.90